sensor_id;sensor_type;location;lat;lon;timestamp;temperature;humidity
11599;DHT22;5855;48.840;9.188;2022-12-05T00:00:12;3.10;99.90
11599;DHT22;5855;48.840;9.188;2022-12-05T00:02:39;3.10;99.90
11599;DHT22;5855;48.840;9.188;2022-12-05T00:05:09;3.00;99.90
11599;DHT22;5855;48.840;9.188;2022-12-05T00:07:37;3.00;99.90
11599;DHT22;5855;48.840;9.188;2022-12-05T00:10:05;3.00;99.90
11599;DHT22;5855;48.840;9.188;2022-12-05T00:12:32;3.10;99.90
11599;DHT22;5855;48.840;9.188;2022-12-05T00:14:59;3.10;99.90
11599;DHT22;5855;48.840;9.188;2022-12-05T00:17:26;3.00;99.90
11599;DHT22;5855;48.840;9.188;2022-12-05T00:19:52;3.00;99.90
11599;DHT22;5855;48.840;9.188;2022-12-05T00:22:20;3.00;99.90
11599;DHT22;5855;48.840;9.188;2022-12-05T00:24:47;3.00;99.90
11599;DHT22;5855;48.840;9.188;2022-12-05T00:27:14;3.00;99.90
11599;DHT22;5855;48.840;9.188;2022-12-05T00:29:41;3.10;99.90
11599;DHT22;5855;48.840;9.188;2022-12-05T00:32:08;3.10;99.90
11599;DHT22;5855;48.840;9.188;2022-12-05T00:34:34;3.10;99.90
11599;DHT22;5855;48.840;9.188;2022-12-05T00:37:02;3.20;99.90
11599;DHT22;5855;48.840;9.188;2022-12-05T00:39:30;3.20;99.90
11599;DHT22;5855;48.840;9.188;2022-12-05T00:41:57;3.10;99.90
11599;DHT22;5855;48.840;9.188;2022-12-05T00:44:24;3.00;99.90
11599;DHT22;5855;48.840;9.188;2022-12-05T00:46:50;3.10;99.90
11599;DHT22;5855;48.840;9.188;2022-12-05T00:49:17;3.10;99.90
11599;DHT22;5855;48.840;9.188;2022-12-05T00:51:44;3.00;99.90
11599;DHT22;5855;48.840;9.188;2022-12-05T00:54:14;3.00;99.90
11599;DHT22;5855;48.840;9.188;2022-12-05T00:56:43;3.00;99.90
11599;DHT22;5855;48.840;9.188;2022-12-05T00:59:14;2.90;99.90
11599;DHT22;5855;48.840;9.188;2022-12-05T01:01:43;2.90;99.90
11599;DHT22;5855;48.840;9.188;2022-12-05T01:04:13;2.90;99.90
11599;DHT22;5855;48.840;9.188;2022-12-05T01:06:41;2.90;99.90
11599;DHT22;5855;48.840;9.188;2022-12-05T01:09:10;3.00;99.90
11599;DHT22;5855;48.840;9.188;2022-12-05T01:11:38;3.00;99.90
11599;DHT22;5855;48.840;9.188;2022-12-05T01:14:06;3.00;99.90
11599;DHT22;5855;48.840;9.188;2022-12-05T01:16:35;3.00;99.90
11599;DHT22;5855;48.840;9.188;2022-12-05T01:19:05;2.90;99.90
11599;DHT22;5855;48.840;9.188;2022-12-05T01:21:31;3.00;99.90
11599;DHT22;5855;48.840;9.188;2022-12-05T01:23:58;2.90;99.90
11599;DHT22;5855;48.840;9.188;2022-12-05T01:26:25;3.00;99.90
11599;DHT22;5855;48.840;9.188;2022-12-05T01:28:52;2.90;99.90
11599;DHT22;5855;48.840;9.188;2022-12-05T01:31:23;3.00;99.90
11599;DHT22;5855;48.840;9.188;2022-12-05T01:33:52;3.10;99.90
11599;DHT22;5855;48.840;9.188;2022-12-05T01:36:19;3.10;99.90
11599;DHT22;5855;48.840;9.188;2022-12-05T01:38:46;3.00;99.90
11599;DHT22;5855;48.840;9.188;2022-12-05T01:41:15;3.00;99.90
11599;DHT22;5855;48.840;9.188;2022-12-05T01:43:56;3.00;99.90
11599;DHT22;5855;48.840;9.188;2022-12-05T01:46:26;3.00;99.90
11599;DHT22;5855;48.840;9.188;2022-12-05T01:48:55;3.00;99.90
11599;DHT22;5855;48.840;9.188;2022-12-05T01:51:23;3.00;99.90
11599;DHT22;5855;48.840;9.188;2022-12-05T01:53:50;3.00;99.90
11599;DHT22;5855;48.840;9.188;2022-12-05T01:56:18;3.00;99.90
11599;DHT22;5855;48.840;9.188;2022-12-05T01:58:46;3.10;99.90
11599;DHT22;5855;48.840;9.188;2022-12-05T02:01:15;3.00;99.90
11599;DHT22;5855;48.840;9.188;2022-12-05T02:03:45;3.00;99.90
11599;DHT22;5855;48.840;9.188;2022-12-05T02:06:13;3.00;99.90
11599;DHT22;5855;48.840;9.188;2022-12-05T02:08:40;3.00;99.90
11599;DHT22;5855;48.840;9.188;2022-12-05T02:11:08;3.00;99.90
11599;DHT22;5855;48.840;9.188;2022-12-05T02:13:49;3.10;99.90
11599;DHT22;5855;48.840;9.188;2022-12-05T02:16:26;3.00;99.90
11599;DHT22;5855;48.840;9.188;2022-12-05T02:19:14;3.00;99.90
11599;DHT22;5855;48.840;9.188;2022-12-05T02:22:05;3.10;99.90
11599;DHT22;5855;48.840;9.188;2022-12-05T02:24:52;3.10;99.90
11599;DHT22;5855;48.840;9.188;2022-12-05T02:27:37;3.20;99.90
11599;DHT22;5855;48.840;9.188;2022-12-05T02:30:07;3.20;99.90
11599;DHT22;5855;48.840;9.188;2022-12-05T02:32:49;3.20;99.90
11599;DHT22;5855;48.840;9.188;2022-12-05T02:35:29;3.10;99.90
11599;DHT22;5855;48.840;9.188;2022-12-05T02:38:12;3.10;99.90
11599;DHT22;5855;48.840;9.188;2022-12-05T02:40:45;3.10;99.90
11599;DHT22;5855;48.840;9.188;2022-12-05T02:43:17;3.10;99.90
11599;DHT22;5855;48.840;9.188;2022-12-05T02:45:48;3.10;99.90
11599;DHT22;5855;48.840;9.188;2022-12-05T02:48:18;3.10;99.90
11599;DHT22;5855;48.840;9.188;2022-12-05T02:50:47;3.10;99.90
11599;DHT22;5855;48.840;9.188;2022-12-05T02:53:16;3.10;99.90
11599;DHT22;5855;48.840;9.188;2022-12-05T02:55:46;3.10;99.90
11599;DHT22;5855;48.840;9.188;2022-12-05T02:58:16;3.10;99.90
11599;DHT22;5855;48.840;9.188;2022-12-05T03:00:48;3.10;99.90
11599;DHT22;5855;48.840;9.188;2022-12-05T03:03:18;3.10;99.90
11599;DHT22;5855;48.840;9.188;2022-12-05T03:05:50;3.10;99.90
11599;DHT22;5855;48.840;9.188;2022-12-05T03:08:24;3.20;99.90
11599;DHT22;5855;48.840;9.188;2022-12-05T03:10:54;3.20;99.90
11599;DHT22;5855;48.840;9.188;2022-12-05T03:13:25;3.20;99.90
11599;DHT22;5855;48.840;9.188;2022-12-05T03:15:58;3.30;99.90
11599;DHT22;5855;48.840;9.188;2022-12-05T03:18:28;3.30;99.90
11599;DHT22;5855;48.840;9.188;2022-12-05T03:20:59;3.20;99.90
11599;DHT22;5855;48.840;9.188;2022-12-05T03:23:31;3.20;99.90
11599;DHT22;5855;48.840;9.188;2022-12-05T03:26:04;3.20;99.90
11599;DHT22;5855;48.840;9.188;2022-12-05T03:28:46;3.30;99.90
11599;DHT22;5855;48.840;9.188;2022-12-05T03:31:21;3.20;99.90
11599;DHT22;5855;48.840;9.188;2022-12-05T03:33:55;3.20;99.90
11599;DHT22;5855;48.840;9.188;2022-12-05T03:36:28;3.30;99.90
11599;DHT22;5855;48.840;9.188;2022-12-05T03:39:00;3.30;99.90
11599;DHT22;5855;48.840;9.188;2022-12-05T03:41:33;3.20;99.90
11599;DHT22;5855;48.840;9.188;2022-12-05T03:44:07;3.20;99.90
11599;DHT22;5855;48.840;9.188;2022-12-05T03:46:40;3.20;99.90
11599;DHT22;5855;48.840;9.188;2022-12-05T03:49:14;3.20;99.90
11599;DHT22;5855;48.840;9.188;2022-12-05T03:51:46;3.20;99.90
11599;DHT22;5855;48.840;9.188;2022-12-05T03:54:19;3.20;99.90
11599;DHT22;5855;48.840;9.188;2022-12-05T03:56:50;3.20;99.90
11599;DHT22;5855;48.840;9.188;2022-12-05T03:59:26;3.30;99.90
11599;DHT22;5855;48.840;9.188;2022-12-05T04:01:57;3.40;99.90
11599;DHT22;5855;48.840;9.188;2022-12-05T04:04:27;3.30;99.90
11599;DHT22;5855;48.840;9.188;2022-12-05T04:06:58;3.30;99.90
11599;DHT22;5855;48.840;9.188;2022-12-05T04:09:32;3.30;99.90
11599;DHT22;5855;48.840;9.188;2022-12-05T04:12:02;3.20;99.90
11599;DHT22;5855;48.840;9.188;2022-12-05T04:14:34;3.30;99.90
11599;DHT22;5855;48.840;9.188;2022-12-05T04:17:05;3.30;99.90
11599;DHT22;5855;48.840;9.188;2022-12-05T04:19:38;3.30;99.90
11599;DHT22;5855;48.840;9.188;2022-12-05T04:22:24;3.20;99.90
11599;DHT22;5855;48.840;9.188;2022-12-05T04:24:52;3.20;99.90
11599;DHT22;5855;48.840;9.188;2022-12-05T04:27:40;3.20;99.90
11599;DHT22;5855;48.840;9.188;2022-12-05T04:30:11;3.10;99.90
11599;DHT22;5855;48.840;9.188;2022-12-05T04:32:44;3.10;99.90
11599;DHT22;5855;48.840;9.188;2022-12-05T04:35:16;3.10;99.90
11599;DHT22;5855;48.840;9.188;2022-12-05T04:37:46;3.20;99.90
11599;DHT22;5855;48.840;9.188;2022-12-05T04:40:20;3.20;99.90
11599;DHT22;5855;48.840;9.188;2022-12-05T04:42:50;3.20;99.90
11599;DHT22;5855;48.840;9.188;2022-12-05T04:45:19;3.30;99.90
11599;DHT22;5855;48.840;9.188;2022-12-05T04:47:52;3.30;99.90
11599;DHT22;5855;48.840;9.188;2022-12-05T04:50:23;3.30;99.90
11599;DHT22;5855;48.840;9.188;2022-12-05T04:52:52;3.30;99.90
11599;DHT22;5855;48.840;9.188;2022-12-05T04:55:21;3.30;99.90
11599;DHT22;5855;48.840;9.188;2022-12-05T04:57:57;3.30;99.90
11599;DHT22;5855;48.840;9.188;2022-12-05T05:00:26;3.30;99.90
11599;DHT22;5855;48.840;9.188;2022-12-05T05:03:02;3.30;99.90
11599;DHT22;5855;48.840;9.188;2022-12-05T05:05:32;3.30;99.90
11599;DHT22;5855;48.840;9.188;2022-12-05T05:08:00;3.30;99.90
11599;DHT22;5855;48.840;9.188;2022-12-05T05:10:33;3.40;99.90
11599;DHT22;5855;48.840;9.188;2022-12-05T05:13:02;3.40;99.90
11599;DHT22;5855;48.840;9.188;2022-12-05T05:15:29;3.40;99.90
11599;DHT22;5855;48.840;9.188;2022-12-05T05:17:57;3.40;99.90
11599;DHT22;5855;48.840;9.188;2022-12-05T05:20:24;3.40;99.90
11599;DHT22;5855;48.840;9.188;2022-12-05T05:22:53;3.40;99.90
11599;DHT22;5855;48.840;9.188;2022-12-05T05:25:20;3.40;99.90
11599;DHT22;5855;48.840;9.188;2022-12-05T05:27:48;3.40;99.90
11599;DHT22;5855;48.840;9.188;2022-12-05T05:30:16;3.40;99.90
11599;DHT22;5855;48.840;9.188;2022-12-05T05:32:43;3.40;99.90
11599;DHT22;5855;48.840;9.188;2022-12-05T05:35:12;3.40;99.90
11599;DHT22;5855;48.840;9.188;2022-12-05T05:37:39;3.40;99.90
11599;DHT22;5855;48.840;9.188;2022-12-05T05:40:08;3.50;99.90
11599;DHT22;5855;48.840;9.188;2022-12-05T05:42:35;3.50;99.90
11599;DHT22;5855;48.840;9.188;2022-12-05T05:45:02;3.60;99.90
11599;DHT22;5855;48.840;9.188;2022-12-05T05:47:29;3.50;99.90
11599;DHT22;5855;48.840;9.188;2022-12-05T05:49:56;3.60;99.90
11599;DHT22;5855;48.840;9.188;2022-12-05T05:52:24;3.60;99.90
11599;DHT22;5855;48.840;9.188;2022-12-05T05:54:51;3.60;99.90
11599;DHT22;5855;48.840;9.188;2022-12-05T05:57:18;3.60;99.90
11599;DHT22;5855;48.840;9.188;2022-12-05T05:59:45;3.70;99.90
11599;DHT22;5855;48.840;9.188;2022-12-05T06:02:12;3.70;99.90
11599;DHT22;5855;48.840;9.188;2022-12-05T06:04:39;3.70;99.90
11599;DHT22;5855;48.840;9.188;2022-12-05T06:07:05;3.70;99.90
11599;DHT22;5855;48.840;9.188;2022-12-05T06:09:34;3.60;99.90
11599;DHT22;5855;48.840;9.188;2022-12-05T06:12:01;3.60;99.90
11599;DHT22;5855;48.840;9.188;2022-12-05T06:14:28;3.60;99.90
11599;DHT22;5855;48.840;9.188;2022-12-05T06:16:55;3.60;99.90
11599;DHT22;5855;48.840;9.188;2022-12-05T06:19:22;3.60;99.90
11599;DHT22;5855;48.840;9.188;2022-12-05T06:21:49;3.60;99.90
11599;DHT22;5855;48.840;9.188;2022-12-05T06:24:16;3.70;99.90
11599;DHT22;5855;48.840;9.188;2022-12-05T06:26:44;3.70;99.90
11599;DHT22;5855;48.840;9.188;2022-12-05T06:29:11;3.70;99.90
11599;DHT22;5855;48.840;9.188;2022-12-05T06:31:38;3.70;99.90
11599;DHT22;5855;48.840;9.188;2022-12-05T06:34:07;3.70;99.90
11599;DHT22;5855;48.840;9.188;2022-12-05T06:36:34;3.70;99.90
11599;DHT22;5855;48.840;9.188;2022-12-05T06:39:01;3.70;99.90
11599;DHT22;5855;48.840;9.188;2022-12-05T06:41:27;3.70;99.90
11599;DHT22;5855;48.840;9.188;2022-12-05T06:43:57;3.80;99.90
11599;DHT22;5855;48.840;9.188;2022-12-05T06:46:26;3.80;99.90
11599;DHT22;5855;48.840;9.188;2022-12-05T06:48:53;3.80;99.90
11599;DHT22;5855;48.840;9.188;2022-12-05T06:51:20;3.80;99.90
11599;DHT22;5855;48.840;9.188;2022-12-05T06:53:47;3.80;99.90
11599;DHT22;5855;48.840;9.188;2022-12-05T06:56:16;3.80;99.90
11599;DHT22;5855;48.840;9.188;2022-12-05T06:58:45;3.80;99.90
11599;DHT22;5855;48.840;9.188;2022-12-05T07:01:16;3.80;99.90
11599;DHT22;5855;48.840;9.188;2022-12-05T07:04:00;3.80;99.90
11599;DHT22;5855;48.840;9.188;2022-12-05T07:06:28;3.80;99.90
11599;DHT22;5855;48.840;9.188;2022-12-05T07:08:55;3.80;99.90
11599;DHT22;5855;48.840;9.188;2022-12-05T07:11:22;3.80;99.90
11599;DHT22;5855;48.840;9.188;2022-12-05T07:13:48;3.80;99.90
11599;DHT22;5855;48.840;9.188;2022-12-05T07:16:16;3.80;99.90
11599;DHT22;5855;48.840;9.188;2022-12-05T07:18:43;3.80;99.90
11599;DHT22;5855;48.840;9.188;2022-12-05T07:21:13;3.80;99.90
11599;DHT22;5855;48.840;9.188;2022-12-05T07:23:42;3.80;99.90
11599;DHT22;5855;48.840;9.188;2022-12-05T07:26:11;3.80;99.90
11599;DHT22;5855;48.840;9.188;2022-12-05T07:28:38;3.90;99.90
11599;DHT22;5855;48.840;9.188;2022-12-05T07:31:06;3.90;99.90
11599;DHT22;5855;48.840;9.188;2022-12-05T07:33:35;4.00;99.90
11599;DHT22;5855;48.840;9.188;2022-12-05T07:36:04;4.00;99.90
11599;DHT22;5855;48.840;9.188;2022-12-05T07:38:31;4.10;99.90
11599;DHT22;5855;48.840;9.188;2022-12-05T07:40:58;4.10;99.90
11599;DHT22;5855;48.840;9.188;2022-12-05T07:43:25;4.10;99.90
11599;DHT22;5855;48.840;9.188;2022-12-05T07:45:52;4.30;99.90
11599;DHT22;5855;48.840;9.188;2022-12-05T07:48:18;4.30;99.90
11599;DHT22;5855;48.840;9.188;2022-12-05T07:50:47;4.40;99.90
11599;DHT22;5855;48.840;9.188;2022-12-05T07:53:14;4.40;99.90
11599;DHT22;5855;48.840;9.188;2022-12-05T07:55:40;4.40;99.90
11599;DHT22;5855;48.840;9.188;2022-12-05T07:58:07;4.40;99.90
11599;DHT22;5855;48.840;9.188;2022-12-05T08:00:34;4.50;99.90
11599;DHT22;5855;48.840;9.188;2022-12-05T08:03:01;4.50;99.90
11599;DHT22;5855;48.840;9.188;2022-12-05T08:05:28;4.60;99.90
11599;DHT22;5855;48.840;9.188;2022-12-05T08:07:56;4.60;99.90
11599;DHT22;5855;48.840;9.188;2022-12-05T08:10:24;4.60;99.90
11599;DHT22;5855;48.840;9.188;2022-12-05T08:12:50;4.70;99.90
11599;DHT22;5855;48.840;9.188;2022-12-05T08:15:17;4.70;99.90
11599;DHT22;5855;48.840;9.188;2022-12-05T08:17:44;4.80;99.90
11599;DHT22;5855;48.840;9.188;2022-12-05T08:20:12;4.90;99.90
11599;DHT22;5855;48.840;9.188;2022-12-05T08:22:39;4.90;99.90
11599;DHT22;5855;48.840;9.188;2022-12-05T08:25:08;4.90;99.90
11599;DHT22;5855;48.840;9.188;2022-12-05T08:27:35;4.90;99.90
11599;DHT22;5855;48.840;9.188;2022-12-05T08:30:02;4.80;99.90
11599;DHT22;5855;48.840;9.188;2022-12-05T08:32:29;4.80;99.90
11599;DHT22;5855;48.840;9.188;2022-12-05T08:34:56;4.80;99.90
11599;DHT22;5855;48.840;9.188;2022-12-05T08:37:23;4.90;99.90
11599;DHT22;5855;48.840;9.188;2022-12-05T08:39:49;4.90;99.90
11599;DHT22;5855;48.840;9.188;2022-12-05T08:42:18;4.90;99.90
11599;DHT22;5855;48.840;9.188;2022-12-05T08:44:44;4.90;99.90
11599;DHT22;5855;48.840;9.188;2022-12-05T08:47:11;5.00;99.90
11599;DHT22;5855;48.840;9.188;2022-12-05T08:49:38;4.90;99.90
11599;DHT22;5855;48.840;9.188;2022-12-05T08:52:05;4.90;99.90
11599;DHT22;5855;48.840;9.188;2022-12-05T08:54:32;5.00;99.90
11599;DHT22;5855;48.840;9.188;2022-12-05T08:56:58;4.90;99.90
11599;DHT22;5855;48.840;9.188;2022-12-05T08:59:27;4.90;99.90
11599;DHT22;5855;48.840;9.188;2022-12-05T09:01:53;4.90;99.90
11599;DHT22;5855;48.840;9.188;2022-12-05T09:04:20;5.00;99.90
11599;DHT22;5855;48.840;9.188;2022-12-05T09:06:47;5.00;99.90
11599;DHT22;5855;48.840;9.188;2022-12-05T09:09:16;5.00;99.90
11599;DHT22;5855;48.840;9.188;2022-12-05T09:11:43;5.10;99.90
11599;DHT22;5855;48.840;9.188;2022-12-05T09:14:14;5.10;99.90
11599;DHT22;5855;48.840;9.188;2022-12-05T09:16:43;5.20;99.90
11599;DHT22;5855;48.840;9.188;2022-12-05T09:19:12;5.20;99.90
11599;DHT22;5855;48.840;9.188;2022-12-05T09:21:40;5.40;99.90
11599;DHT22;5855;48.840;9.188;2022-12-05T09:24:09;5.40;99.90
11599;DHT22;5855;48.840;9.188;2022-12-05T09:26:36;5.50;99.90
11599;DHT22;5855;48.840;9.188;2022-12-05T09:29:02;5.50;99.90
11599;DHT22;5855;48.840;9.188;2022-12-05T09:31:29;5.50;99.90
11599;DHT22;5855;48.840;9.188;2022-12-05T09:33:58;5.60;99.90
11599;DHT22;5855;48.840;9.188;2022-12-05T09:36:27;5.60;99.90
11599;DHT22;5855;48.840;9.188;2022-12-05T09:38:58;5.60;99.90
11599;DHT22;5855;48.840;9.188;2022-12-05T09:41:37;5.60;99.90
11599;DHT22;5855;48.840;9.188;2022-12-05T09:44:37;5.60;99.90
11599;DHT22;5855;48.840;9.188;2022-12-05T09:47:12;5.60;99.90
11599;DHT22;5855;48.840;9.188;2022-12-05T09:49:46;5.70;99.90
11599;DHT22;5855;48.840;9.188;2022-12-05T09:52:22;5.70;99.90
11599;DHT22;5855;48.840;9.188;2022-12-05T09:54:51;5.70;99.90
11599;DHT22;5855;48.840;9.188;2022-12-05T09:57:23;5.80;99.90
11599;DHT22;5855;48.840;9.188;2022-12-05T09:59:55;5.90;99.90
11599;DHT22;5855;48.840;9.188;2022-12-05T10:02:28;5.90;99.90
11599;DHT22;5855;48.840;9.188;2022-12-05T10:05:04;5.90;99.90
11599;DHT22;5855;48.840;9.188;2022-12-05T10:07:37;5.90;99.90
11599;DHT22;5855;48.840;9.188;2022-12-05T10:10:24;6.00;99.90
11599;DHT22;5855;48.840;9.188;2022-12-05T10:12:59;6.00;99.90
11599;DHT22;5855;48.840;9.188;2022-12-05T10:15:32;6.00;99.90
11599;DHT22;5855;48.840;9.188;2022-12-05T10:18:02;5.90;99.90
11599;DHT22;5855;48.840;9.188;2022-12-05T10:20:34;5.90;99.90
11599;DHT22;5855;48.840;9.188;2022-12-05T10:23:04;5.90;99.90
11599;DHT22;5855;48.840;9.188;2022-12-05T10:25:33;5.90;99.90
11599;DHT22;5855;48.840;9.188;2022-12-05T10:28:05;5.90;99.90
11599;DHT22;5855;48.840;9.188;2022-12-05T10:30:38;5.80;99.90
11599;DHT22;5855;48.840;9.188;2022-12-05T10:33:13;5.80;99.90
11599;DHT22;5855;48.840;9.188;2022-12-05T10:35:42;5.70;99.90
11599;DHT22;5855;48.840;9.188;2022-12-05T10:38:13;5.70;99.90
11599;DHT22;5855;48.840;9.188;2022-12-05T10:40:43;5.70;99.90
11599;DHT22;5855;48.840;9.188;2022-12-05T10:43:13;5.70;99.90
11599;DHT22;5855;48.840;9.188;2022-12-05T10:45:43;5.80;99.90
11599;DHT22;5855;48.840;9.188;2022-12-05T10:48:12;5.90;99.90
11599;DHT22;5855;48.840;9.188;2022-12-05T10:50:42;6.00;99.90
11599;DHT22;5855;48.840;9.188;2022-12-05T10:53:15;6.20;99.90
11599;DHT22;5855;48.840;9.188;2022-12-05T10:55:44;6.40;99.90
11599;DHT22;5855;48.840;9.188;2022-12-05T10:58:13;6.60;99.90
11599;DHT22;5855;48.840;9.188;2022-12-05T11:00:41;6.80;99.90
11599;DHT22;5855;48.840;9.188;2022-12-05T11:03:26;7.00;99.90
11599;DHT22;5855;48.840;9.188;2022-12-05T11:05:56;7.30;99.90
11599;DHT22;5855;48.840;9.188;2022-12-05T11:08:25;7.60;99.90
11599;DHT22;5855;48.840;9.188;2022-12-05T11:11:04;7.80;99.90
11599;DHT22;5855;48.840;9.188;2022-12-05T11:13:32;8.00;99.90
11599;DHT22;5855;48.840;9.188;2022-12-05T11:16:00;8.20;99.90
11599;DHT22;5855;48.840;9.188;2022-12-05T11:18:29;8.40;99.90
11599;DHT22;5855;48.840;9.188;2022-12-05T11:21:08;8.60;99.90
11599;DHT22;5855;48.840;9.188;2022-12-05T11:23:35;8.60;99.90
11599;DHT22;5855;48.840;9.188;2022-12-05T11:26:02;8.60;99.90
11599;DHT22;5855;48.840;9.188;2022-12-05T11:28:32;8.60;99.90
11599;DHT22;5855;48.840;9.188;2022-12-05T11:31:01;8.50;99.90
11599;DHT22;5855;48.840;9.188;2022-12-05T11:33:30;8.50;99.90
11599;DHT22;5855;48.840;9.188;2022-12-05T11:36:03;8.50;99.90
11599;DHT22;5855;48.840;9.188;2022-12-05T11:38:31;8.70;99.90
11599;DHT22;5855;48.840;9.188;2022-12-05T11:41:14;8.80;99.90
11599;DHT22;5855;48.840;9.188;2022-12-05T11:43:57;9.30;99.90
11599;DHT22;5855;48.840;9.188;2022-12-05T11:46:37;9.50;99.90
11599;DHT22;5855;48.840;9.188;2022-12-05T11:49:27;9.70;99.90
11599;DHT22;5855;48.840;9.188;2022-12-05T11:52:07;10.00;99.90
11599;DHT22;5855;48.840;9.188;2022-12-05T11:54:54;10.60;99.90
11599;DHT22;5855;48.840;9.188;2022-12-05T12:00:22;13.60;99.90
11599;DHT22;5855;48.840;9.188;2022-12-05T12:03:16;15.40;99.90
11599;DHT22;5855;48.840;9.188;2022-12-05T12:05:53;16.10;99.90
11599;DHT22;5855;48.840;9.188;2022-12-05T12:08:26;16.10;99.90
11599;DHT22;5855;48.840;9.188;2022-12-05T12:11:02;15.60;99.90
11599;DHT22;5855;48.840;9.188;2022-12-05T12:13:48;14.80;99.90
11599;DHT22;5855;48.840;9.188;2022-12-05T12:16:22;14.10;99.90
11599;DHT22;5855;48.840;9.188;2022-12-05T12:19:08;13.40;99.90
11599;DHT22;5855;48.840;9.188;2022-12-05T12:21:58;12.90;99.90
11599;DHT22;5855;48.840;9.188;2022-12-05T12:24:37;12.40;99.90
11599;DHT22;5855;48.840;9.188;2022-12-05T12:27:14;11.70;99.90
11599;DHT22;5855;48.840;9.188;2022-12-05T12:29:56;11.00;99.90
11599;DHT22;5855;48.840;9.188;2022-12-05T12:32:31;10.60;99.90
11599;DHT22;5855;48.840;9.188;2022-12-05T12:35:17;10.40;99.90
11599;DHT22;5855;48.840;9.188;2022-12-05T12:38:02;9.90;99.90
11599;DHT22;5855;48.840;9.188;2022-12-05T12:40:40;9.80;99.90
11599;DHT22;5855;48.840;9.188;2022-12-05T12:43:20;9.70;99.90
11599;DHT22;5855;48.840;9.188;2022-12-05T12:46:01;9.90;99.90
11599;DHT22;5855;48.840;9.188;2022-12-05T12:48:47;9.90;99.90
11599;DHT22;5855;48.840;9.188;2022-12-05T12:51:17;10.00;99.90
11599;DHT22;5855;48.840;9.188;2022-12-05T12:53:58;10.10;99.90
11599;DHT22;5855;48.840;9.188;2022-12-05T12:56:37;10.20;99.90
11599;DHT22;5855;48.840;9.188;2022-12-05T12:59:15;10.30;99.90
11599;DHT22;5855;48.840;9.188;2022-12-05T13:01:48;10.30;99.90
11599;DHT22;5855;48.840;9.188;2022-12-05T13:04:20;10.30;99.90
11599;DHT22;5855;48.840;9.188;2022-12-05T13:06:54;10.20;99.90
11599;DHT22;5855;48.840;9.188;2022-12-05T13:09:26;10.20;99.90
11599;DHT22;5855;48.840;9.188;2022-12-05T13:11:58;10.10;99.90
11599;DHT22;5855;48.840;9.188;2022-12-05T13:14:26;9.80;99.90
11599;DHT22;5855;48.840;9.188;2022-12-05T13:16:55;9.70;99.90
11599;DHT22;5855;48.840;9.188;2022-12-05T13:19:27;9.60;99.90
11599;DHT22;5855;48.840;9.188;2022-12-05T13:21:56;9.50;99.90
11599;DHT22;5855;48.840;9.188;2022-12-05T13:24:25;9.50;99.90
11599;DHT22;5855;48.840;9.188;2022-12-05T13:26:52;9.50;99.90
11599;DHT22;5855;48.840;9.188;2022-12-05T13:29:29;9.50;99.90
11599;DHT22;5855;48.840;9.188;2022-12-05T13:31:58;9.30;99.90
11599;DHT22;5855;48.840;9.188;2022-12-05T13:34:44;9.30;99.90
11599;DHT22;5855;48.840;9.188;2022-12-05T13:37:19;9.20;99.90
11599;DHT22;5855;48.840;9.188;2022-12-05T13:40:06;9.20;99.90
11599;DHT22;5855;48.840;9.188;2022-12-05T13:43:02;9.10;99.90
11599;DHT22;5855;48.840;9.188;2022-12-05T13:45:31;9.00;99.90
11599;DHT22;5855;48.840;9.188;2022-12-05T13:48:10;8.90;99.90
11599;DHT22;5855;48.840;9.188;2022-12-05T13:50:43;8.70;99.90
11599;DHT22;5855;48.840;9.188;2022-12-05T13:53:24;8.60;99.90
11599;DHT22;5855;48.840;9.188;2022-12-05T13:55:58;8.50;99.90
11599;DHT22;5855;48.840;9.188;2022-12-05T13:58:47;8.30;99.90
11599;DHT22;5855;48.840;9.188;2022-12-05T14:01:48;8.20;99.90
11599;DHT22;5855;48.840;9.188;2022-12-05T14:04:46;8.00;99.90
11599;DHT22;5855;48.840;9.188;2022-12-05T14:07:39;7.90;99.90
11599;DHT22;5855;48.840;9.188;2022-12-05T14:10:09;7.70;99.90
11599;DHT22;5855;48.840;9.188;2022-12-05T14:12:49;7.50;99.90
11599;DHT22;5855;48.840;9.188;2022-12-05T14:15:30;7.40;99.90
11599;DHT22;5855;48.840;9.188;2022-12-05T14:18:09;7.30;99.90
11599;DHT22;5855;48.840;9.188;2022-12-05T14:21:00;7.20;99.90
11599;DHT22;5855;48.840;9.188;2022-12-05T14:23:48;7.10;99.90
11599;DHT22;5855;48.840;9.188;2022-12-05T14:26:33;6.90;99.90
11599;DHT22;5855;48.840;9.188;2022-12-05T14:29:16;6.90;99.90
11599;DHT22;5855;48.840;9.188;2022-12-05T14:32:00;6.80;99.90
11599;DHT22;5855;48.840;9.188;2022-12-05T14:34:30;6.70;99.90
11599;DHT22;5855;48.840;9.188;2022-12-05T14:37:00;6.70;99.90
11599;DHT22;5855;48.840;9.188;2022-12-05T14:39:37;6.60;99.90
11599;DHT22;5855;48.840;9.188;2022-12-05T14:42:18;6.50;99.90
11599;DHT22;5855;48.840;9.188;2022-12-05T14:44:48;6.50;99.90
11599;DHT22;5855;48.840;9.188;2022-12-05T14:47:19;6.50;99.90
11599;DHT22;5855;48.840;9.188;2022-12-05T14:49:54;6.40;99.90
11599;DHT22;5855;48.840;9.188;2022-12-05T14:52:24;6.30;99.90
11599;DHT22;5855;48.840;9.188;2022-12-05T14:54:52;6.30;99.90
11599;DHT22;5855;48.840;9.188;2022-12-05T14:57:21;6.20;99.90
11599;DHT22;5855;48.840;9.188;2022-12-05T14:59:51;6.20;99.90
11599;DHT22;5855;48.840;9.188;2022-12-05T15:02:22;6.20;99.90
11599;DHT22;5855;48.840;9.188;2022-12-05T15:04:55;6.10;99.90
11599;DHT22;5855;48.840;9.188;2022-12-05T15:07:29;6.10;99.90
11599;DHT22;5855;48.840;9.188;2022-12-05T15:09:58;6.10;99.90
11599;DHT22;5855;48.840;9.188;2022-12-05T15:12:31;6.00;99.90
11599;DHT22;5855;48.840;9.188;2022-12-05T15:15:05;6.00;99.90
11599;DHT22;5855;48.840;9.188;2022-12-05T15:17:41;5.90;99.90
11599;DHT22;5855;48.840;9.188;2022-12-05T15:20:15;5.90;99.90
11599;DHT22;5855;48.840;9.188;2022-12-05T15:22:43;5.90;99.90
11599;DHT22;5855;48.840;9.188;2022-12-05T15:25:28;5.90;99.90
11599;DHT22;5855;48.840;9.188;2022-12-05T15:27:59;5.80;99.90
11599;DHT22;5855;48.840;9.188;2022-12-05T15:30:27;5.70;99.90
11599;DHT22;5855;48.840;9.188;2022-12-05T15:32:54;5.70;99.90
11599;DHT22;5855;48.840;9.188;2022-12-05T15:35:26;5.60;99.90
11599;DHT22;5855;48.840;9.188;2022-12-05T15:37:56;5.50;99.90
11599;DHT22;5855;48.840;9.188;2022-12-05T15:40:24;5.50;99.90
11599;DHT22;5855;48.840;9.188;2022-12-05T15:42:54;5.40;99.90
11599;DHT22;5855;48.840;9.188;2022-12-05T15:45:23;5.30;99.90
11599;DHT22;5855;48.840;9.188;2022-12-05T15:47:52;5.30;99.90
11599;DHT22;5855;48.840;9.188;2022-12-05T15:50:28;5.30;99.90
11599;DHT22;5855;48.840;9.188;2022-12-05T15:53:01;5.20;99.90
11599;DHT22;5855;48.840;9.188;2022-12-05T15:55:37;5.20;99.90
11599;DHT22;5855;48.840;9.188;2022-12-05T15:58:10;5.20;99.90
11599;DHT22;5855;48.840;9.188;2022-12-05T16:00:41;5.10;99.90
11599;DHT22;5855;48.840;9.188;2022-12-05T16:03:15;5.10;99.90
11599;DHT22;5855;48.840;9.188;2022-12-05T16:05:49;5.10;99.90
11599;DHT22;5855;48.840;9.188;2022-12-05T16:08:17;5.00;99.90
11599;DHT22;5855;48.840;9.188;2022-12-05T16:10:45;5.00;99.90
11599;DHT22;5855;48.840;9.188;2022-12-05T16:13:13;5.00;99.90
11599;DHT22;5855;48.840;9.188;2022-12-05T16:15:43;5.00;99.90
11599;DHT22;5855;48.840;9.188;2022-12-05T16:18:24;5.00;99.90
11599;DHT22;5855;48.840;9.188;2022-12-05T16:20:54;5.00;99.90
11599;DHT22;5855;48.840;9.188;2022-12-05T16:23:25;4.90;99.90
11599;DHT22;5855;48.840;9.188;2022-12-05T16:25:53;4.90;99.90
11599;DHT22;5855;48.840;9.188;2022-12-05T16:28:20;4.90;99.90
11599;DHT22;5855;48.840;9.188;2022-12-05T16:30:58;4.80;99.90